createdAt,value
2022-10-02T00:00:40.430Z,5.00
2022-10-02T00:01:40.465Z,5.20
2022-10-02T00:02:41.070Z,6.40
2022-10-02T00:03:40.418Z,6.60
2022-10-02T00:04:41.075Z,6.50
2022-10-02T00:05:40.386Z,5.60
2022-10-02T00:06:40.371Z,5.80
2022-10-02T00:07:40.356Z,5.60
2022-10-02T00:08:41.033Z,5.10
2022-10-02T00:09:40.337Z,9.10
2022-10-02T00:10:40.320Z,5.50
2022-10-02T00:11:40.340Z,5.70
2022-10-02T00:12:40.351Z,6.50
2022-10-02T00:13:40.294Z,5.80
2022-10-02T00:14:41.027Z,3.80
2022-10-02T00:15:41.026Z,6.30
2022-10-02T00:16:40.698Z,4.80
2022-10-02T00:17:40.242Z,5.80
2022-10-02T00:18:40.582Z,8.10
2022-10-02T00:19:40.227Z,3.50
2022-10-02T00:20:41.025Z,4.80
2022-10-02T00:21:40.212Z,7.50
2022-10-02T00:22:42.072Z,6.40
2022-10-02T00:23:40.183Z,8.10
2022-10-02T00:24:40.169Z,4.00
2022-10-02T00:25:40.144Z,7.10
2022-10-02T00:26:40.147Z,6.00
2022-10-02T00:27:40.147Z,4.50
2022-10-02T00:28:42.060Z,6.60
2022-10-02T00:29:41.024Z,6.50
2022-10-02T00:30:41.043Z,4.10
2022-10-02T00:31:41.089Z,7.80
2022-10-02T00:32:40.066Z,5.00
2022-10-02T00:33:42.049Z,6.80
2022-10-02T00:34:40.048Z,5.80
2022-10-02T00:35:40.040Z,3.50
2022-10-02T00:36:40.031Z,6.70
2022-10-02T00:37:40.059Z,4.80
2022-10-02T00:38:40.007Z,9.20
2022-10-02T00:39:41.550Z,7.20
2022-10-02T00:40:39.977Z,5.30
2022-10-02T00:41:40.536Z,6.90
2022-10-02T00:42:39.961Z,9.90
2022-10-02T00:43:40.032Z,9.10
2022-10-02T00:44:39.942Z,7.70
2022-10-02T00:45:39.965Z,4.80
2022-10-02T00:46:41.547Z,9.70
2022-10-02T00:47:39.914Z,5.60
2022-10-02T00:48:41.579Z,4.40
2022-10-02T00:49:39.879Z,6.40
2022-10-02T00:50:39.879Z,5.40
2022-10-02T00:51:39.867Z,4.30
2022-10-02T00:52:39.937Z,9.70
2022-10-02T00:53:39.831Z,7.40
2022-10-02T00:54:39.834Z,6.20
2022-10-02T00:55:40.533Z,5.40
2022-10-02T00:56:39.816Z,3.90
2022-10-02T00:57:41.542Z,4.80
2022-10-02T00:58:40.580Z,6.20
2022-10-02T00:59:42.553Z,7.40
2022-10-02T01:00:40.633Z,5.10
2022-10-02T01:01:40.594Z,7.20
2022-10-02T01:02:39.740Z,6.00
2022-10-02T01:03:39.737Z,4.30
2022-10-02T01:04:39.735Z,4.60
2022-10-02T01:05:39.692Z,5.20
2022-10-02T01:06:39.680Z,4.90
2022-10-02T01:07:39.672Z,7.00
2022-10-02T01:08:39.661Z,5.80
2022-10-02T01:09:40.529Z,6.90
2022-10-02T01:10:40.544Z,6.80
2022-10-02T01:11:42.532Z,5.60
2022-10-02T01:12:39.608Z,6.10
2022-10-02T01:13:39.598Z,4.90
2022-10-02T01:14:39.590Z,9.40
2022-10-02T01:15:40.070Z,7.00
2022-10-02T01:16:39.920Z,10.10
2022-10-02T01:17:39.574Z,5.60
2022-10-02T01:18:39.552Z,7.60
2022-10-02T01:19:39.540Z,5.60
2022-10-02T01:20:39.527Z,10.00
2022-10-02T01:21:39.526Z,7.20
2022-10-02T01:22:39.496Z,7.50
2022-10-02T01:23:39.511Z,5.30
2022-10-02T01:24:39.471Z,6.70
2022-10-02T01:25:40.035Z,8.70
2022-10-02T01:26:39.456Z,6.80
2022-10-02T01:27:39.667Z,6.90
2022-10-02T01:28:40.027Z,6.30
2022-10-02T01:29:39.440Z,7.60
2022-10-02T01:30:39.407Z,7.50
2022-10-02T01:31:41.099Z,7.10
2022-10-02T01:32:39.385Z,3.90
2022-10-02T01:33:39.375Z,5.60
2022-10-02T01:34:39.370Z,6.60
2022-10-02T01:35:39.419Z,7.60
2022-10-02T01:36:44.040Z,6.70
2022-10-02T01:37:39.322Z,6.00
2022-10-02T01:38:39.313Z,7.50
2022-10-02T01:39:41.048Z,9.30
2022-10-02T01:40:40.032Z,7.10
2022-10-02T01:41:39.319Z,5.00
2022-10-02T01:42:40.035Z,3.20
2022-10-02T01:43:39.270Z,6.50
2022-10-02T01:44:39.246Z,7.20
2022-10-02T01:45:39.364Z,6.10
2022-10-02T01:46:39.600Z,6.10
2022-10-02T01:47:39.258Z,7.40
2022-10-02T01:48:39.209Z,8.90
2022-10-02T01:49:39.208Z,6.70
2022-10-02T01:50:39.180Z,6.70
2022-10-02T01:51:39.164Z,5.20
2022-10-02T01:52:39.171Z,6.40
2022-10-02T01:53:39.152Z,7.80
2022-10-02T01:54:39.132Z,5.90
2022-10-02T01:55:39.132Z,12.20
2022-10-02T01:56:39.605Z,5.10
2022-10-02T01:57:39.093Z,9.60
2022-10-02T01:58:39.086Z,8.20
2022-10-02T01:59:42.039Z,6.20
2022-10-02T02:00:40.095Z,11.10
2022-10-02T02:01:42.027Z,7.00
2022-10-02T02:02:39.132Z,11.10
2022-10-02T02:03:39.058Z,8.10
2022-10-02T02:04:39.017Z,9.30
2022-10-02T02:05:39.026Z,6.70
2022-10-02T02:06:39.306Z,8.20
2022-10-02T02:07:38.995Z,6.50
2022-10-02T02:08:38.978Z,8.60
2022-10-02T02:09:39.002Z,7.10
2022-10-02T02:10:38.973Z,12.80
2022-10-02T02:11:38.948Z,7.80
2022-10-02T02:12:38.946Z,6.70
2022-10-02T02:13:40.548Z,8.90
2022-10-02T02:14:38.915Z,7.20
2022-10-02T02:15:38.901Z,12.10
2022-10-02T02:16:39.362Z,5.70
2022-10-02T02:17:41.536Z,6.30
2022-10-02T02:18:38.856Z,7.00
2022-10-02T02:19:39.063Z,7.20
2022-10-02T02:20:38.842Z,6.90
2022-10-02T02:21:38.822Z,5.50
2022-10-02T02:22:39.540Z,7.50
2022-10-02T02:23:38.802Z,8.60
2022-10-02T02:24:39.602Z,6.70
2022-10-02T02:25:38.800Z,6.70
2022-10-02T02:26:39.176Z,11.00
2022-10-02T02:27:38.763Z,8.00
2022-10-02T02:28:40.549Z,8.40
2022-10-02T02:29:38.731Z,6.70
2022-10-02T02:30:38.738Z,5.40
2022-10-02T02:31:39.159Z,7.10
2022-10-02T02:32:38.704Z,6.30
2022-10-02T02:33:39.535Z,7.40
2022-10-02T02:34:38.701Z,8.00
2022-10-02T02:35:40.579Z,9.00
2022-10-02T02:36:39.087Z,8.10
2022-10-02T02:37:41.536Z,11.90
2022-10-02T02:38:43.575Z,6.30
2022-10-02T02:39:38.627Z,7.50
2022-10-02T02:40:38.607Z,8.10
2022-10-02T02:41:38.607Z,8.40
2022-10-02T02:42:38.593Z,9.90
2022-10-02T02:43:38.580Z,8.80
2022-10-02T02:44:39.537Z,4.90
2022-10-02T02:45:39.630Z,6.50
2022-10-02T02:46:38.883Z,7.20
2022-10-02T02:47:38.526Z,7.00
2022-10-02T02:48:38.568Z,8.00
2022-10-02T02:49:38.513Z,5.10
2022-10-02T02:50:38.513Z,12.90
2022-10-02T02:51:39.065Z,7.40
2022-10-02T02:52:38.496Z,12.40
2022-10-02T02:53:38.465Z,9.40
2022-10-02T02:54:38.451Z,7.00
2022-10-02T02:55:44.143Z,9.20
2022-10-02T02:56:39.432Z,8.50
2022-10-02T02:57:38.430Z,5.70
2022-10-02T02:58:40.069Z,7.50
2022-10-02T02:59:38.404Z,7.20
2022-10-02T03:00:39.110Z,4.50
2022-10-02T03:01:38.364Z,10.50
2022-10-02T03:02:39.060Z,12.10
2022-10-02T03:03:38.359Z,9.60
2022-10-02T03:04:39.062Z,8.60
2022-10-02T03:05:38.324Z,8.50
2022-10-02T03:06:38.665Z,10.10
2022-10-02T03:07:38.328Z,6.50
2022-10-02T03:08:38.297Z,6.50
2022-10-02T03:09:39.044Z,9.10
2022-10-02T03:10:40.064Z,6.20
2022-10-02T03:11:40.045Z,7.90
2022-10-02T03:12:38.251Z,9.70
2022-10-02T03:13:38.242Z,7.80
2022-10-02T03:14:38.234Z,8.80
2022-10-02T03:15:38.226Z,6.40
2022-10-02T03:16:38.713Z,10.50
2022-10-02T03:17:39.043Z,8.30
2022-10-02T03:18:38.176Z,8.70
2022-10-02T03:19:38.165Z,12.50
2022-10-02T03:20:38.151Z,10.60
2022-10-02T03:21:38.150Z,4.80
2022-10-02T03:22:38.136Z,8.30
2022-10-02T03:23:38.136Z,11.60
2022-10-02T03:24:38.131Z,5.70
2022-10-02T03:25:38.101Z,6.80
2022-10-02T03:26:39.320Z,7.90
2022-10-02T03:27:38.086Z,6.10
2022-10-02T03:28:55.158Z,11.20
2022-10-02T03:29:39.049Z,9.90
2022-10-02T03:30:38.033Z,9.30
2022-10-02T03:31:38.131Z,7.60
2022-10-02T03:32:38.540Z,9.30
2022-10-02T03:33:39.038Z,10.10
2022-10-02T03:34:38.016Z,7.70
2022-10-02T03:35:40.529Z,5.10
2022-10-02T03:36:38.937Z,9.80
2022-10-02T03:37:37.960Z,6.50
2022-10-02T03:38:39.564Z,12.80
2022-10-02T03:39:38.552Z,8.10
2022-10-02T03:40:37.924Z,3.50
2022-10-02T03:41:39.560Z,6.50
2022-10-02T03:42:38.053Z,7.70
2022-10-02T03:43:37.891Z,7.00
2022-10-02T03:44:37.880Z,14.00
2022-10-02T03:45:51.103Z,10.00
2022-10-02T03:46:39.370Z,9.30
2022-10-02T03:47:39.564Z,8.00
2022-10-02T03:48:37.865Z,11.70
2022-10-02T03:49:37.824Z,9.20
2022-10-02T03:50:37.809Z,9.00
2022-10-02T03:51:39.558Z,8.80
2022-10-02T03:52:37.791Z,7.60
2022-10-02T03:53:37.778Z,6.80
2022-10-02T03:54:38.053Z,7.70
2022-10-02T03:55:38.554Z,9.20
2022-10-02T03:56:39.731Z,8.30
2022-10-02T03:57:39.562Z,11.60
2022-10-02T03:58:37.735Z,8.60
2022-10-02T03:59:38.540Z,9.30
2022-10-02T04:00:37.704Z,7.90
2022-10-02T04:01:38.609Z,9.00
2022-10-02T04:02:38.120Z,9.10
2022-10-02T04:03:37.721Z,10.00
2022-10-02T04:04:38.547Z,13.90
2022-10-02T04:05:39.558Z,11.40
2022-10-02T04:06:37.977Z,13.70
2022-10-02T04:07:38.045Z,6.40
2022-10-02T04:08:38.051Z,10.70
2022-10-02T04:09:37.600Z,8.50
2022-10-02T04:10:37.580Z,8.10
2022-10-02T04:11:37.607Z,7.70
2022-10-02T04:12:37.574Z,10.80
2022-10-02T04:13:42.596Z,12.60
2022-10-02T04:14:37.533Z,11.00
2022-10-02T04:15:37.536Z,7.00
2022-10-02T04:16:37.901Z,12.10
2022-10-02T04:17:38.033Z,11.50
2022-10-02T04:18:38.032Z,7.60
2022-10-02T04:19:39.060Z,10.40
2022-10-02T04:20:37.509Z,7.00
2022-10-02T04:21:37.468Z,12.20
2022-10-02T04:22:37.468Z,6.80
2022-10-02T04:23:37.441Z,8.10
2022-10-02T04:24:37.467Z,9.10
2022-10-02T04:25:37.418Z,6.10
2022-10-02T04:26:37.756Z,7.70
2022-10-02T04:27:37.411Z,7.40
2022-10-02T04:28:37.386Z,9.80
2022-10-02T04:29:37.390Z,9.00
2022-10-02T04:30:37.379Z,6.50
2022-10-02T04:31:37.418Z,11.10
2022-10-02T04:32:37.346Z,8.30
2022-10-02T04:33:38.506Z,9.40
2022-10-02T04:34:37.322Z,5.60
2022-10-02T04:35:37.317Z,7.20
2022-10-02T04:36:37.724Z,13.00
2022-10-02T04:37:37.290Z,6.00
2022-10-02T04:38:37.271Z,9.00
2022-10-02T04:39:37.273Z,13.70
2022-10-02T04:40:37.239Z,8.20
2022-10-02T04:41:37.248Z,8.90
2022-10-02T04:42:37.223Z,8.20
2022-10-02T04:43:37.248Z,10.20
2022-10-02T04:44:37.217Z,8.50
2022-10-02T04:45:37.259Z,13.00
2022-10-02T04:46:37.494Z,7.10
2022-10-02T04:47:37.192Z,7.20
2022-10-02T04:48:38.043Z,9.00
2022-10-02T04:49:37.143Z,8.60
2022-10-02T04:50:37.151Z,8.00
2022-10-02T04:51:37.117Z,7.30
2022-10-02T04:52:37.117Z,8.50
2022-10-02T04:53:37.111Z,7.40
2022-10-02T04:54:37.083Z,5.50
2022-10-02T04:55:37.089Z,5.00
2022-10-02T04:56:37.523Z,7.60
2022-10-02T04:57:37.067Z,12.30
2022-10-02T04:58:37.040Z,6.10
2022-10-02T04:59:37.071Z,9.20
2022-10-02T05:00:37.108Z,6.60
2022-10-02T05:01:37.070Z,6.00
2022-10-02T05:02:37.012Z,8.70
2022-10-02T05:03:36.995Z,12.10
2022-10-02T05:04:36.975Z,9.10
2022-10-02T05:05:36.959Z,8.20
2022-10-02T05:06:37.304Z,10.10
2022-10-02T05:07:36.931Z,9.10
2022-10-02T05:08:36.955Z,9.30
2022-10-02T05:09:36.941Z,6.30
2022-10-02T05:10:36.903Z,6.60
2022-10-02T05:11:36.897Z,6.80
2022-10-02T05:12:36.880Z,8.60
2022-10-02T05:13:36.861Z,7.70
2022-10-02T05:14:36.866Z,10.50
2022-10-02T05:15:36.865Z,9.70
2022-10-02T05:16:37.107Z,9.70
2022-10-02T05:17:36.828Z,8.90
2022-10-02T05:18:36.808Z,14.10
2022-10-02T05:19:36.811Z,11.60
2022-10-02T05:20:36.799Z,6.20
2022-10-02T05:21:36.777Z,8.60
2022-10-02T05:22:36.769Z,9.50
2022-10-02T05:23:36.749Z,10.40
2022-10-02T05:24:36.739Z,5.90
2022-10-02T05:25:36.730Z,10.60
2022-10-02T05:26:36.953Z,8.40
2022-10-02T05:27:36.710Z,7.00
2022-10-02T05:28:36.695Z,5.80
2022-10-02T05:29:36.683Z,10.10
2022-10-02T05:30:36.691Z,7.70
2022-10-02T05:31:36.746Z,10.50
2022-10-02T05:32:36.654Z,10.50
2022-10-02T05:33:36.651Z,7.00
2022-10-02T05:34:36.632Z,11.60
2022-10-02T05:35:36.607Z,6.50
2022-10-02T05:36:36.926Z,7.30
2022-10-02T05:37:36.591Z,11.50
2022-10-02T05:38:36.588Z,4.90
2022-10-02T05:39:36.573Z,7.70
2022-10-02T05:40:36.559Z,3.40
2022-10-02T05:41:36.541Z,6.90
2022-10-02T05:42:39.999Z,6.50
2022-10-02T05:43:37.524Z,6.70
2022-10-02T05:44:36.512Z,6.10
2022-10-02T05:45:36.506Z,6.80
2022-10-02T05:46:36.856Z,6.90
2022-10-02T05:47:36.493Z,7.90
2022-10-02T05:48:36.498Z,10.70
2022-10-02T05:49:36.458Z,4.70
2022-10-02T05:50:36.437Z,7.50
2022-10-02T05:51:36.442Z,5.20
2022-10-02T05:52:36.436Z,6.30
2022-10-02T05:53:36.415Z,8.40
2022-10-02T05:54:36.405Z,7.80
2022-10-02T05:55:36.394Z,9.50
2022-10-02T05:56:36.628Z,7.60
2022-10-02T05:57:36.358Z,7.40
2022-10-02T05:58:36.368Z,5.40
2022-10-02T05:59:36.335Z,11.20
2022-10-02T06:00:36.333Z,11.10
2022-10-02T06:01:36.309Z,9.70
2022-10-02T06:02:39.247Z,5.30
2022-10-02T06:03:36.316Z,7.90
2022-10-02T06:04:36.304Z,9.30
2022-10-02T06:05:36.268Z,5.80
2022-10-02T06:06:36.582Z,5.90
2022-10-02T06:07:36.245Z,7.60
2022-10-02T06:08:36.248Z,3.80
2022-10-02T06:09:36.242Z,7.00
2022-10-02T06:10:36.213Z,8.20
2022-10-02T06:11:36.204Z,4.60
2022-10-02T06:12:36.194Z,6.10
2022-10-02T06:13:36.188Z,8.70
2022-10-02T06:14:36.177Z,6.60
2022-10-02T06:15:36.163Z,6.90
2022-10-02T06:16:36.583Z,3.90
2022-10-02T06:17:36.159Z,7.10
2022-10-02T06:18:36.126Z,6.80
2022-10-02T06:19:36.131Z,9.30
2022-10-02T06:20:36.103Z,5.90
2022-10-02T06:21:36.113Z,11.90
2022-10-02T06:22:36.079Z,8.00
2022-10-02T06:23:36.063Z,5.90
2022-10-02T06:24:36.052Z,6.90
2022-10-02T06:25:36.045Z,7.80
2022-10-02T06:26:36.467Z,7.60
2022-10-02T06:27:36.031Z,4.10
2022-10-02T06:28:36.020Z,4.60
2022-10-02T06:29:36.018Z,6.90
2022-10-02T06:30:35.992Z,4.50
2022-10-02T06:31:36.129Z,8.40
2022-10-02T06:32:35.963Z,4.30
2022-10-02T06:33:35.955Z,8.80
2022-10-02T06:34:35.947Z,2.80
2022-10-02T06:35:35.972Z,9.90
2022-10-02T06:36:36.193Z,8.20
2022-10-02T06:37:35.913Z,6.60
2022-10-02T06:38:35.910Z,3.30
2022-10-02T06:39:35.901Z,2.70
2022-10-02T06:40:35.891Z,10.10
2022-10-02T06:41:35.867Z,3.20
2022-10-02T06:42:35.844Z,4.70
2022-10-02T06:43:35.865Z,5.90
2022-10-02T06:44:35.832Z,4.90
2022-10-02T06:45:35.833Z,4.70
2022-10-02T06:46:36.155Z,3.00
2022-10-02T06:47:35.798Z,2.60
2022-10-02T06:48:35.783Z,5.10
2022-10-02T06:49:35.772Z,4.60
2022-10-02T06:50:35.780Z,3.50
2022-10-02T06:51:35.768Z,5.90
2022-10-02T06:52:38.166Z,4.80
2022-10-02T06:53:35.727Z,6.30
2022-10-02T06:54:35.714Z,7.00
2022-10-02T06:55:35.704Z,6.20
2022-10-02T06:56:35.874Z,6.20
2022-10-02T06:57:35.685Z,4.40
2022-10-02T06:58:35.674Z,5.90
2022-10-02T06:59:35.666Z,3.70
2022-10-02T07:00:35.699Z,6.30
2022-10-02T07:01:35.631Z,4.90
2022-10-02T07:02:35.625Z,3.70
2022-10-02T07:03:35.624Z,7.00
2022-10-02T07:04:35.601Z,2.30
2022-10-02T07:05:35.584Z,4.30
2022-10-02T07:06:35.953Z,4.50
2022-10-02T07:07:35.588Z,5.10
2022-10-02T07:08:35.559Z,7.90
2022-10-02T07:09:35.536Z,5.80
2022-10-02T07:10:35.539Z,4.90
2022-10-02T07:11:35.621Z,4.30
2022-10-02T07:12:35.501Z,2.30
2022-10-02T07:13:35.497Z,3.70
2022-10-02T07:14:35.486Z,2.50
2022-10-02T07:15:35.470Z,6.60
2022-10-02T07:16:35.887Z,2.90
2022-10-02T07:17:35.483Z,3.70
2022-10-02T07:18:35.479Z,3.90
2022-10-02T07:19:35.430Z,4.80
2022-10-02T07:20:35.426Z,6.50
2022-10-02T07:21:35.398Z,4.20
2022-10-02T07:22:50.273Z,3.90
2022-10-02T07:23:36.396Z,4.90
2022-10-02T07:24:35.365Z,3.40
2022-10-02T07:25:35.366Z,3.00
2022-10-02T07:26:35.840Z,3.40
2022-10-02T07:27:35.340Z,3.00
2022-10-02T07:28:35.343Z,3.10
2022-10-02T07:29:35.319Z,1.80
2022-10-02T07:30:35.309Z,3.70
2022-10-02T07:31:35.321Z,2.30
2022-10-02T07:32:35.274Z,4.20
2022-10-02T07:33:35.266Z,3.60
2022-10-02T07:34:35.275Z,1.50
2022-10-02T07:35:35.247Z,3.00
2022-10-02T07:36:35.623Z,5.50
2022-10-02T07:37:35.229Z,4.00
2022-10-02T07:38:35.213Z,3.60
2022-10-02T07:39:35.227Z,2.30
2022-10-02T07:40:35.193Z,4.00
2022-10-02T07:41:35.183Z,3.70
2022-10-02T07:42:35.177Z,2.00
2022-10-02T07:43:35.151Z,3.30
2022-10-02T07:44:35.149Z,4.30
2022-10-02T07:45:35.266Z,3.50
2022-10-02T07:46:35.538Z,7.10
2022-10-02T07:47:35.123Z,0.80
2022-10-02T07:48:35.112Z,3.50
2022-10-02T07:49:35.105Z,2.50
2022-10-02T07:50:35.072Z,1.50
2022-10-02T07:51:35.080Z,3.60
2022-10-02T07:52:35.047Z,3.80
2022-10-02T07:53:35.062Z,2.10
2022-10-02T07:54:35.046Z,2.80
2022-10-02T07:55:35.038Z,4.20
2022-10-02T07:56:35.306Z,2.30
2022-10-02T07:57:35.012Z,2.60
2022-10-02T07:58:34.982Z,4.40
2022-10-02T07:59:34.974Z,2.10
2022-10-02T08:00:34.959Z,4.00
2022-10-02T08:01:34.954Z,3.60
2022-10-02T08:02:34.978Z,2.80
2022-10-02T08:03:34.957Z,1.80
2022-10-02T08:04:37.222Z,2.40
2022-10-02T08:05:34.902Z,3.80
2022-10-02T08:06:35.238Z,3.00
2022-10-02T08:07:34.905Z,3.00
2022-10-02T08:08:34.884Z,3.10
2022-10-02T08:09:34.868Z,2.50
2022-10-02T08:10:34.883Z,1.60
2022-10-02T08:11:34.873Z,3.40
2022-10-02T08:12:34.833Z,2.70
2022-10-02T08:13:34.831Z,1.80
2022-10-02T08:14:34.818Z,3.80
2022-10-02T08:15:34.797Z,5.10
2022-10-02T08:16:35.163Z,3.40
2022-10-02T08:17:34.792Z,4.60
2022-10-02T08:18:35.742Z,2.80
2022-10-02T08:19:34.779Z,2.60
2022-10-02T08:20:34.742Z,3.00
2022-10-02T08:21:34.732Z,3.40
2022-10-02T08:22:34.755Z,1.60
2022-10-02T08:23:34.699Z,0.80
2022-10-02T08:24:34.722Z,4.20
2022-10-02T08:25:34.693Z,2.60
2022-10-02T08:26:36.021Z,3.10
2022-10-02T08:27:34.684Z,2.50
2022-10-02T08:28:34.647Z,6.20
2022-10-02T08:29:34.652Z,5.20
2022-10-02T08:30:34.627Z,4.40
2022-10-02T08:31:34.681Z,3.00
2022-10-02T08:32:35.145Z,2.00
2022-10-02T08:33:34.601Z,3.30
2022-10-02T08:34:34.576Z,3.70
2022-10-02T08:35:34.569Z,2.70
2022-10-02T08:36:34.929Z,2.80
2022-10-02T08:37:34.557Z,3.80
2022-10-02T08:38:34.532Z,4.50
2022-10-02T08:39:34.531Z,4.90
2022-10-02T08:40:34.510Z,2.50
2022-10-02T08:41:34.520Z,3.80
2022-10-02T08:42:34.496Z,4.00
2022-10-02T08:43:34.523Z,3.60
2022-10-02T08:44:36.445Z,3.90
2022-10-02T08:45:34.555Z,3.50
2022-10-02T08:46:34.996Z,2.40
2022-10-02T08:47:34.429Z,5.60
2022-10-02T08:48:34.434Z,4.60
2022-10-02T08:49:34.445Z,3.30
2022-10-02T08:50:34.406Z,4.70
2022-10-02T08:51:34.402Z,5.60
2022-10-02T08:52:34.378Z,4.30
2022-10-02T08:53:34.376Z,4.40
2022-10-02T08:54:34.386Z,2.90
2022-10-02T08:55:34.351Z,6.50
2022-10-02T08:56:34.874Z,3.40
2022-10-02T08:57:34.333Z,2.00
2022-10-02T08:58:34.335Z,3.40
2022-10-02T08:59:34.325Z,4.00
2022-10-02T09:00:34.354Z,2.70
2022-10-02T09:01:34.287Z,2.00
2022-10-02T09:02:34.328Z,6.00
2022-10-02T09:03:34.253Z,3.40
2022-10-02T09:04:34.253Z,3.20
2022-10-02T09:05:34.245Z,3.00
2022-10-02T09:06:34.517Z,2.40
2022-10-02T09:07:34.204Z,4.30
2022-10-02T09:08:34.199Z,2.10
2022-10-02T09:09:34.203Z,3.00
2022-10-02T09:10:34.569Z,4.60
2022-10-02T09:11:34.164Z,3.50
2022-10-02T09:12:34.157Z,3.90
2022-10-02T09:13:34.137Z,3.70
2022-10-02T09:14:34.149Z,1.60
2022-10-02T09:15:34.136Z,4.40
2022-10-02T09:16:34.705Z,2.20
2022-10-02T09:17:34.095Z,2.60
2022-10-02T09:18:34.112Z,3.10
2022-10-02T09:19:34.104Z,1.70
2022-10-02T09:20:34.064Z,1.50
2022-10-02T09:21:34.045Z,3.70
2022-10-02T09:22:34.034Z,2.10
2022-10-02T09:23:34.040Z,3.30
2022-10-02T09:24:34.051Z,1.30
2022-10-02T09:25:34.039Z,2.50
2022-10-02T09:26:34.353Z,2.00
2022-10-02T09:27:33.995Z,2.80
2022-10-02T09:28:34.199Z,1.70
2022-10-02T09:29:33.996Z,1.50
2022-10-02T09:30:33.970Z,1.70
2022-10-02T09:31:34.069Z,2.30
2022-10-02T09:32:33.923Z,2.40
2022-10-02T09:33:33.954Z,0.70
2022-10-02T09:34:33.905Z,1.50
2022-10-02T09:35:33.904Z,1.80
2022-10-02T09:36:34.091Z,1.00
2022-10-02T09:37:33.872Z,2.70
2022-10-02T09:38:38.333Z,1.50
2022-10-02T09:39:34.844Z,3.30
2022-10-02T09:40:33.855Z,2.40
2022-10-02T09:41:33.873Z,6.60
2022-10-02T09:42:33.858Z,1.20
2022-10-02T09:43:33.799Z,0.90
2022-10-02T09:44:33.788Z,2.60
2022-10-02T09:45:33.832Z,1.40
2022-10-02T09:46:34.037Z,2.10
2022-10-02T09:47:33.808Z,3.00
2022-10-02T09:48:33.755Z,1.70
2022-10-02T09:49:33.732Z,1.70
2022-10-02T09:50:33.725Z,1.70
2022-10-02T09:51:33.717Z,1.30
2022-10-02T09:52:33.723Z,2.40
2022-10-02T09:53:33.697Z,1.10
2022-10-02T09:54:33.696Z,1.50
2022-10-02T09:55:33.675Z,2.30
2022-10-02T09:56:33.942Z,2.90
2022-10-02T09:57:33.648Z,2.30
2022-10-02T09:58:33.641Z,1.30
2022-10-02T09:59:33.628Z,1.90
2022-10-02T10:00:33.605Z,2.00
2022-10-02T10:01:33.627Z,1.50
2022-10-02T10:02:33.699Z,1.90
2022-10-02T10:03:33.617Z,1.40
2022-10-02T10:04:53.767Z,2.10
2022-10-02T10:05:34.552Z,1.50
2022-10-02T10:06:33.831Z,1.20
2022-10-02T10:07:33.541Z,1.30
2022-10-02T10:08:33.532Z,3.90
2022-10-02T10:09:33.514Z,1.40
2022-10-02T10:10:33.502Z,2.50
2022-10-02T10:11:33.917Z,1.00
2022-10-02T10:12:33.495Z,1.30
2022-10-02T10:13:33.486Z,1.50
2022-10-02T10:14:33.469Z,1.10
2022-10-02T10:15:33.440Z,0.60
2022-10-02T10:16:33.496Z,1.90
2022-10-02T10:17:33.416Z,0.90
2022-10-02T10:18:33.417Z,1.70
2022-10-02T10:19:33.416Z,1.30
2022-10-02T10:20:33.403Z,0.40
2022-10-02T10:21:33.380Z,1.80
2022-10-02T10:22:33.358Z,0.40
2022-10-02T10:23:33.360Z,1.40
2022-10-02T10:24:33.346Z,0.90
2022-10-02T10:25:33.346Z,1.10
2022-10-02T10:26:33.318Z,1.20
2022-10-02T10:27:33.323Z,2.90
2022-10-02T10:28:33.305Z,1.90
2022-10-02T10:29:33.281Z,0.90
2022-10-02T10:30:33.292Z,1.10
2022-10-02T10:31:33.423Z,2.90
2022-10-02T10:32:33.277Z,0.80
2022-10-02T10:33:33.251Z,2.30
2022-10-02T10:34:33.230Z,1.70
2022-10-02T10:35:33.249Z,1.70
2022-10-02T10:36:33.241Z,1.60
2022-10-02T10:37:33.200Z,1.00
2022-10-02T10:38:33.186Z,1.80
2022-10-02T10:39:33.174Z,2.40
2022-10-02T10:40:33.155Z,1.30
2022-10-02T10:41:33.162Z,0.50
2022-10-02T10:42:44.953Z,1.60
2022-10-02T10:43:34.152Z,0.60
2022-10-02T10:44:33.122Z,2.00
2022-10-02T10:45:33.160Z,1.20
2022-10-02T10:46:33.097Z,4.30
2022-10-02T10:47:33.090Z,2.00
2022-10-02T10:48:33.074Z,0.70
2022-10-02T10:49:33.074Z,1.20
2022-10-02T10:50:33.049Z,2.10
2022-10-02T10:51:33.198Z,1.20
2022-10-02T10:52:33.025Z,1.60
2022-10-02T10:53:33.020Z,2.80
2022-10-02T10:54:33.007Z,2.70
2022-10-02T10:55:33.009Z,1.70
2022-10-02T10:56:32.983Z,2.80
2022-10-02T10:57:32.977Z,3.00
2022-10-02T10:58:32.958Z,1.10
2022-10-02T10:59:32.951Z,2.30
2022-10-02T11:00:32.971Z,1.90
2022-10-02T11:01:32.975Z,0.90
2022-10-02T11:02:32.963Z,1.60
2022-10-02T11:03:32.905Z,2.50
2022-10-02T11:04:32.887Z,2.00
2022-10-02T11:05:32.875Z,1.00
2022-10-02T11:06:32.869Z,2.60
2022-10-02T11:07:32.884Z,2.20
2022-10-02T11:08:32.868Z,1.00
2022-10-02T11:09:32.834Z,3.30
2022-10-02T11:10:32.815Z,2.20
2022-10-02T11:11:32.807Z,1.50
2022-10-02T11:12:32.805Z,3.10
2022-10-02T11:13:32.790Z,2.10
2022-10-02T11:14:32.792Z,2.90
2022-10-02T11:15:32.765Z,1.70
2022-10-02T11:16:32.833Z,0.60
2022-10-02T11:17:32.763Z,2.50
2022-10-02T11:18:32.743Z,2.30
2022-10-02T11:19:32.724Z,3.40
2022-10-02T11:20:32.731Z,4.10
2022-10-02T11:21:32.722Z,2.00
2022-10-02T11:22:32.686Z,5.60
2022-10-02T11:23:32.702Z,2.30
2022-10-02T11:24:32.667Z,3.00
2022-10-02T11:25:32.650Z,0.90
2022-10-02T11:26:32.641Z,2.50
2022-10-02T11:27:32.633Z,2.40
2022-10-02T11:28:32.615Z,3.00
2022-10-02T11:29:32.605Z,2.70
2022-10-02T11:30:32.640Z,1.90
2022-10-02T11:31:32.662Z,2.30
2022-10-02T11:32:32.595Z,1.50
2022-10-02T11:33:32.589Z,2.40
2022-10-02T11:34:32.551Z,1.60
2022-10-02T11:35:32.560Z,1.50
2022-10-02T11:36:32.560Z,2.40
2022-10-02T11:37:32.530Z,3.50
2022-10-02T11:38:32.505Z,4.10
2022-10-02T11:39:32.517Z,2.50
2022-10-02T11:40:32.513Z,2.10
2022-10-02T11:41:32.480Z,3.40
2022-10-02T11:42:32.485Z,2.40
2022-10-02T11:43:32.460Z,3.40
2022-10-02T11:44:32.436Z,1.60
2022-10-02T11:45:32.474Z,2.60
2022-10-02T11:46:32.573Z,3.00
2022-10-02T11:47:32.421Z,5.30
2022-10-02T11:48:32.404Z,2.90
2022-10-02T11:49:32.407Z,3.50
2022-10-02T11:50:32.366Z,3.90
2022-10-02T11:51:32.363Z,1.70
2022-10-02T11:52:32.385Z,1.20
2022-10-02T11:53:32.349Z,6.30
2022-10-02T11:54:32.323Z,3.30
2022-10-02T11:55:32.334Z,2.90
2022-10-02T11:56:32.307Z,2.90
2022-10-02T11:57:32.285Z,2.50
2022-10-02T11:58:32.289Z,3.00
2022-10-02T11:59:32.273Z,1.90
2022-10-02T12:00:32.274Z,4.60
2022-10-02T12:01:32.258Z,2.90
2022-10-02T12:02:32.340Z,6.20
2022-10-02T12:03:32.368Z,2.30
2022-10-02T12:04:32.246Z,2.30
2022-10-02T12:05:32.204Z,2.70
2022-10-02T12:06:32.196Z,3.10
2022-10-02T12:07:32.201Z,3.80
2022-10-02T12:08:32.162Z,7.50
2022-10-02T12:09:32.164Z,2.90
2022-10-02T12:10:32.148Z,2.80
2022-10-02T12:11:32.160Z,3.00
2022-10-02T12:12:32.153Z,1.60
2022-10-02T12:13:32.588Z,2.90
2022-10-02T12:14:32.110Z,3.60
2022-10-02T12:15:32.086Z,4.10
2022-10-02T12:16:32.183Z,2.00
2022-10-02T12:17:32.089Z,4.50
2022-10-02T12:18:32.054Z,2.60
2022-10-02T12:19:32.052Z,2.50
2022-10-02T12:20:32.068Z,1.60
2022-10-02T12:21:32.019Z,4.00
2022-10-02T12:22:32.018Z,4.20
2022-10-02T12:23:32.004Z,3.70
2022-10-02T12:24:32.008Z,4.20
2022-10-02T12:25:32.001Z,2.40
2022-10-02T12:26:31.980Z,2.60
2022-10-02T12:27:32.006Z,4.30
2022-10-02T12:28:32.058Z,2.40
2022-10-02T12:29:31.931Z,3.40
2022-10-02T12:30:31.923Z,4.20
2022-10-02T12:31:31.971Z,2.40
2022-10-02T12:32:31.894Z,3.80
2022-10-02T12:33:31.885Z,3.90
2022-10-02T12:34:31.890Z,3.20
2022-10-02T12:35:31.869Z,1.30
2022-10-02T12:36:31.923Z,4.40
2022-10-02T12:37:31.836Z,2.10
2022-10-02T12:38:31.830Z,3.20
2022-10-02T12:39:31.832Z,4.40
2022-10-02T12:40:31.834Z,2.00
2022-10-02T12:41:31.793Z,2.50
2022-10-02T12:42:31.789Z,3.10
2022-10-02T12:43:31.811Z,3.40
2022-10-02T12:44:31.766Z,1.20
2022-10-02T12:45:31.836Z,2.80
2022-10-02T12:46:31.753Z,2.90
2022-10-02T12:47:31.730Z,5.30
2022-10-02T12:48:31.742Z,2.30
2022-10-02T12:49:31.775Z,4.20
2022-10-02T12:50:31.708Z,3.30
2022-10-02T12:51:31.704Z,2.10
2022-10-02T12:52:31.684Z,2.70
2022-10-02T12:53:31.661Z,4.80
2022-10-02T12:54:31.666Z,3.50
2022-10-02T12:55:31.646Z,1.50
2022-10-02T12:56:31.627Z,1.30
2022-10-02T12:57:35.413Z,2.10
2022-10-02T12:58:32.618Z,3.70
2022-10-02T12:59:31.622Z,2.20
2022-10-02T13:00:31.587Z,1.90
2022-10-02T13:01:31.681Z,3.60
2022-10-02T13:02:49.486Z,4.20
2022-10-02T13:03:32.566Z,4.20
2022-10-02T13:04:31.548Z,2.40
2022-10-02T13:05:31.552Z,4.10
2022-10-02T13:06:31.594Z,4.40
2022-10-02T13:07:32.068Z,3.50
2022-10-02T13:08:31.538Z,4.70
2022-10-02T13:09:32.091Z,1.80
2022-10-02T13:10:31.477Z,4.20
2022-10-02T13:11:31.469Z,5.20
2022-10-02T13:12:31.463Z,4.00
2022-10-02T13:13:31.457Z,2.50
2022-10-02T13:14:31.451Z,3.40
2022-10-02T13:15:31.451Z,2.00
2022-10-02T13:16:31.446Z,5.00